Time;durP1;ratioP1;P1;durP2;ratioP2;P2;SDS_P1;SDS_P2;PMS_P1;PMS_P2;Temp;Humidity;BMP_temperature;BMP_pressure;BME280_temperature;BME280_humidity;BME280_pressure;Samples;Min_cycle;Max_cycle;Signal;HPM_P1;HPM_P2
2023/12/18 06:45:03;;;;;;;16.00;8.13;;;;;;;;;;10615714;27;20585;-89
2023/12/18 06:50:05;;;;;;;6.82;5.05;;;;;;;;;;10580484;28;20372;-89
2023/12/18 06:55:06;;;;;;;14.50;9.07;;;;;;;;;;10581153;28;20028;-87
2023/12/18 07:00:08;;;;;;;11.27;7.38;;;;;;;;;;10584097;28;20016;-87
2023/12/18 07:05:09;;;;;;;9.32;6.63;;;;;;;;;;10585331;28;20060;-87
2023/12/18 07:10:10;;;;;;;;;;;;;;;;;;10585372;28;20032;-85
2023/12/18 07:15:11;;;;;;;9.48;5.72;;;;;;;;;;10586520;28;20313;-85
2023/12/18 07:20:12;;;;;;;27.45;20.60;;;;;;;;;;10585696;28;20161;-85
2023/12/18 07:25:13;;;;;;;;;;;;;;;;;;10585121;28;20019;-85
2023/12/18 07:30:14;;;;;;;7.50;5.78;;;;;;;;;;10599596;28;19967;-85
2023/12/18 07:35:15;;;;;;;;;;;;;;;;;;10609013;28;20039;-86
2023/12/18 07:40:16;;;;;;;8.52;5.45;;;;;;;;;;10605591;28;19895;-86
2023/12/18 07:45:18;;;;;;;9.07;7.40;;;;;;;;;;10640503;28;20057;-88
2023/12/18 07:50:19;;;;;;;10.75;8.32;;;;;;;;;;10610571;28;20058;-85
2023/12/18 07:55:20;;;;;;;7.88;5.43;;;;;;;;;;10591367;28;20028;-87
2023/12/18 08:00:21;;;;;;;12.13;9.45;;;;;;;;;;10588689;28;20053;-86
2023/12/18 08:05:23;;;;;;;7.82;5.72;;;;;;;;;;10583470;28;20502;-84
2023/12/18 08:10:24;;;;;;;10.55;5.78;;;;;;;;;;10578566;28;20031;-79
2023/12/18 08:15:25;;;;;;;;;;;;;;;;;;10572230;28;20028;-81
2023/12/18 08:20:26;;;;;;;9.52;6.97;;;;;;;;;;10574251;28;19904;-80
2023/12/18 08:25:27;;;;;;;12.93;8.57;;;;;;;;;;10571719;28;20031;-79
2023/12/18 08:30:28;;;;;;;10.27;7.32;;;;;;;;;;10573383;28;20185;-80
2023/12/18 08:35:30;;;;;;;;;;;;;;;;;;10574486;28;20020;-80
2023/12/18 08:40:31;;;;;;;11.68;8.20;;;;;;;;;;10579428;28;19915;-79
2023/12/18 08:45:33;;;;;;;10.57;7.53;;;;;;;;;;10585449;28;20027;-80
2023/12/18 08:50:33;;;;;;;;;;;;;;;;;;10575490;28;20023;-80
2023/12/18 08:55:38;;;;;;;11.88;7.18;;;;;;;;;;10572760;28;19908;-80
2023/12/18 09:00:39;;;;;;;10.25;7.43;;;;;;;;;;10575273;28;20035;-80
2023/12/18 09:05:40;;;;;;;11.13;8.20;;;;;;;;;;10571722;28;20034;-80
2023/12/18 09:10:42;;;;;;;10.55;7.40;;;;;;;;;;10571780;28;20169;-79
2023/12/18 09:15:42;;;;;;;;;;;;;;;;;;10576767;28;20023;-80
2023/12/18 09:20:44;;;;;;;8.98;5.78;;;;;;;;;;10577068;28;19904;-81
2023/12/18 09:25:44;;;;;;;;;;;;;;;;;;10595904;28;20083;-80
2023/12/18 09:30:45;;;;;;;7.15;5.60;;;;;;;;;;10577075;28;19956;-80
2023/12/18 09:35:46;;;;;;;;;;;;;;;;;;10575657;28;20028;-81
2023/12/18 09:40:47;;;;;;;9.60;6.85;;;;;;;;;;10576390;28;19916;-84
2023/12/18 09:45:48;;;;;;;;;;;;;;;;;;10591933;28;20181;-79
2023/12/18 09:50:49;;;;;;;8.55;7.00;;;;;;;;;;10592542;28;19960;-79
2023/12/18 09:55:54;;;;;;;;;;;;;;;;;;10570866;28;20024;-80
2023/12/18 10:00:55;;;;;;;9.02;6.00;;;;;;;;;;10567609;28;19903;-80
2023/12/18 10:05:56;;;;;;;7.95;5.72;;;;;;;;;;10586828;28;20028;-79
2023/12/18 10:10:57;;;;;;;8.45;5.63;;;;;;;;;;10586656;28;20077;-79
2023/12/18 10:16:00;;;;;;;9.20;5.40;;;;;;;;;;10569349;28;20032;-80
2023/12/18 10:21:01;;;;;;;6.03;4.82;;;;;;;;;;10569091;28;20063;-80
2023/12/18 10:26:02;;;;;;;;;;;;;;;;;;10571306;28;20023;-80
2023/12/18 10:31:04;;;;;;;8.93;6.40;;;;;;;;;;10572221;28;19908;-80
2023/12/18 10:36:06;;;;;;;8.50;5.85;;;;;;;;;;10574826;28;20024;-80
2023/12/18 10:41:09;;;;;;;7.47;5.15;;;;;;;;;;10593201;28;20115;-81
2023/12/18 10:46:12;;;;;;;8.85;6.95;;;;;;;;;;10597447;28;20046;-81
2023/12/18 10:51:14;;;;;;;6.90;5.22;;;;;;;;;;10576473;28;20072;-84
2023/12/18 10:56:16;;;;;;;7.50;6.07;;;;;;;;;;10574141;28;20554;-81
2023/12/18 11:01:19;;;;;;;8.55;6.03;;;;;;;;;;10579131;28;20112;-80
2023/12/18 11:06:20;;;;;;;8.93;6.47;;;;;;;;;;10585148;28;20030;-81
2023/12/18 11:11:22;;;;;;;6.80;4.88;;;;;;;;;;10575485;28;20122;-81
2023/12/18 11:16:46;;;;;;;8.45;5.93;;;;;;;;;;10571957;28;20037;-80
2023/12/18 11:21:51;;;;;;;7.35;5.78;;;;;;;;;;10575134;28;20123;-80
2023/12/18 11:26:52;;;;;;;8.00;5.30;;;;;;;;;;10588592;28;20024;-80
2023/12/18 11:31:53;;;;;;;6.53;5.20;;;;;;;;;;10575768;28;20024;-81
2023/12/18 11:36:54;;;;;;;9.35;6.65;;;;;;;;;;10575736;28;20030;-80
2023/12/18 11:41:55;;;;;;;8.90;4.90;;;;;;;;;;10576888;28;20119;-80
2023/12/18 11:46:56;;;;;;;;;;;;;;;;;;10578800;28;20130;-81
2023/12/18 11:51:59;;;;;;;7.55;4.97;;;;;;;;;;10579332;28;19914;-81
2023/12/18 11:57:00;;;;;;;8.77;6.57;;;;;;;;;;10586639;28;20113;-81
2023/12/18 12:02:01;;;;;;;10.05;7.57;;;;;;;;;;10597149;28;20016;-80
2023/12/18 12:07:02;;;;;;;12.88;7.25;;;;;;;;;;10578743;28;20539;-81
2023/12/18 12:12:03;;;;;;;;;;;;;;;;;;10597331;28;20066;-81
2023/12/18 12:17:04;;;;;;;8.23;5.97;;;;;;;;;;10597039;28;19907;-81
2023/12/18 12:22:06;;;;;;;11.20;7.22;;;;;;;;;;10593765;28;20020;-80
2023/12/18 12:27:07;;;;;;;8.85;5.60;;;;;;;;;;10574996;28;20402;-80
2023/12/18 12:32:08;;;;;;;;;;;;;;;;;;10576291;28;20451;-80
2023/12/18 12:37:12;;;;;;;9.88;5.95;;;;;;;;;;10574777;28;19903;-81
2023/12/18 12:42:13;;;;;;;8.82;5.20;;;;;;;;;;10575419;28;20048;-80
2023/12/18 12:47:14;;;;;;;5.72;4.72;;;;;;;;;;10575614;28;20114;-81
2023/12/18 12:52:15;;;;;;;;;;;;;;;;;;10576171;28;20032;-80
2023/12/18 12:57:48;;;;;;;7.05;4.70;;;;;;;;;;10532830;22;19993;-80
2023/12/18 13:03:50;;;;;;;8.52;5.95;;;;;;;;;;10508986;28;20107;-82
2023/12/18 13:09:09;;;;;;;6.07;4.35;;;;;;;;;;10403586;28;20077;-81
2023/12/18 13:14:12;;;;;;;9.55;6.00;;;;;;;;;;10515870;28;20047;-80
2023/12/18 13:20:11;;;;;;;8.85;6.30;;;;;;;;;;10517840;28;20036;-81
2023/12/18 13:26:00;;;;;;;10.45;6.85;;;;;;;;;;10506497;28;20108;-82
2023/12/18 13:31:33;;;;;;;8.15;5.43;;;;;;;;;;10506991;28;20497;-81
2023/12/18 13:37:15;;;;;;;5.45;4.40;;;;;;;;;;10488136;28;20028;-80
2023/12/18 13:42:59;;;;;;;8.13;5.40;;;;;;;;;;10485553;28;20024;-81
2023/12/18 13:48:03;;;;;;;7.78;4.32;;;;;;;;;;10506718;28;20101;-81
2023/12/18 13:53:11;;;;;;;7.65;5.60;;;;;;;;;;10505350;28;20066;-82
2023/12/18 13:58:16;;;;;;;6.27;4.57;;;;;;;;;;10511161;28;20040;-84
2023/12/18 14:09:00;;;;;;;6.55;4.40;;;;;;;;;;10507598;28;20024;-80
2023/12/18 14:14:09;;;;;;;9.38;6.30;;;;;;;;;;10503909;28;20548;-81
2023/12/18 14:19:38;;;;;;;6.53;4.68;;;;;;;;;;10542081;28;20036;-82
2023/12/18 14:25:01;;;;;;;6.22;4.00;;;;;;;;;;10460000;28;20040;-82
2023/12/18 14:30:06;;;;;;;7.90;4.90;;;;;;;;;;10542540;28;20039;-82
2023/12/18 14:35:09;;;;;;;5.07;4.15;;;;;;;;;;10527959;28;20419;-81
2023/12/18 14:40:17;;;;;;;7.32;5.43;;;;;;;;;;10518173;28;20436;-82
2023/12/18 14:45:25;;;;;;;11.25;7.00;;;;;;;;;;10508158;28;20032;-82
2023/12/18 14:50:55;;;;;;;6.75;5.65;;;;;;;;;;10505991;28;20108;-82
2023/12/18 14:56:18;;;;;;;7.75;4.88;;;;;;;;;;10521358;28;20037;-82
2023/12/18 15:01:55;;;;;;;7.03;5.10;;;;;;;;;;10509867;28;20111;-82
2023/12/18 15:07:04;;;;;;;6.53;4.88;;;;;;;;;;10518544;28;20533;-81
2023/12/18 15:12:28;;;;;;;6.13;4.63;;;;;;;;;;10518503;28;20123;-82
2023/12/18 15:17:58;;;;;;;7.45;5.95;;;;;;;;;;10518116;28;20029;-83
2023/12/18 15:23:00;;;;;;;5.13;3.70;;;;;;;;;;10519080;28;20096;-83
2023/12/18 15:28:27;;;;;;;6.18;3.83;;;;;;;;;;10518373;28;20028;-83
2023/12/18 15:33:28;;;;;;;5.85;4.55;;;;;;;;;;10512792;28;20037;-80
2023/12/18 15:38:32;;;;;;;;;;;;;;;;;;10510222;28;20024;-80
2023/12/18 15:43:37;;;;;;;6.30;4.38;;;;;;;;;;10513456;28;19904;-81
2023/12/18 15:48:38;;;;;;;8.10;6.22;;;;;;;;;;10493818;28;20488;-79
2023/12/18 15:53:58;;;;;;;5.90;4.55;;;;;;;;;;10508935;28;20052;-83
2023/12/18 15:59:05;;;;;;;6.78;3.97;;;;;;;;;;10512677;28;20033;-81
2023/12/18 16:04:08;;;;;;;6.78;4.43;;;;;;;;;;10495215;28;20146;-80
2023/12/18 16:09:14;;;;;;;7.45;5.35;;;;;;;;;;10513120;28;20024;-81
2023/12/18 16:14:18;;;;;;;4.78;3.83;;;;;;;;;;10515362;28;20028;-81
2023/12/18 16:19:30;;;;;;;5.07;4.03;;;;;;;;;;10512279;28;20032;-79
2023/12/18 16:24:45;;;;;;;4.88;3.65;;;;;;;;;;10512146;28;20115;-80
2023/12/18 16:30:06;;;;;;;5.88;4.05;;;;;;;;;;10515090;28;20059;-81
2023/12/18 16:35:14;;;;;;;5.78;3.83;;;;;;;;;;10518986;28;20036;-82
2023/12/18 16:40:42;;;;;;;5.03;3.88;;;;;;;;;;10514327;28;20040;-82
2023/12/18 16:46:10;;;;;;;5.53;4.53;;;;;;;;;;10504993;28;20021;-80
2023/12/18 16:51:14;;;;;;;4.85;3.53;;;;;;;;;;10487451;28;20039;-82
2023/12/18 16:56:16;;;;;;;6.38;4.85;;;;;;;;;;10503806;28;20036;-81
2023/12/18 17:01:19;;;;;;;7.22;4.95;;;;;;;;;;10507576;28;20033;-83
2023/12/18 17:06:26;;;;;;;5.43;3.95;;;;;;;;;;10509280;28;20498;-84
2023/12/18 17:11:34;;;;;;;4.85;3.17;;;;;;;;;;10506514;28;20040;-83
2023/12/18 17:16:36;;;;;;;7.13;4.07;;;;;;;;;;10509106;28;20024;-82
2023/12/18 17:21:40;;;;;;;4.05;2.90;;;;;;;;;;10520235;28;20036;-83
2023/12/18 17:26:43;;;;;;;5.15;3.47;;;;;;;;;;10516794;28;20031;-83
2023/12/18 17:43:29;;;;;;;6.47;5.00;;;;;;;;;;10504911;28;20052;-88
2023/12/18 18:12:05;;;;;;;5.63;4.22;;;;;;;;;;10458916;28;20044;-88
2023/12/18 18:23:35;;;;;;;7.47;5.47;;;;;;;;;;10378043;28;20469;-89
2023/12/18 18:35:00;;;;;;;5.40;3.70;;;;;;;;;;10375339;28;20050;-88
2023/12/18 19:43:43;;;;;;;7.90;5.85;;;;;;;;;;10412722;28;20042;-88
2023/12/18 19:49:20;;;;;;;7.72;5.95;;;;;;;;;;10398718;28;20044;-88
2023/12/18 19:55:01;;;;;;;6.05;4.45;;;;;;;;;;10398354;28;20030;-88
2023/12/18 20:00:12;;;;;;;7.60;5.40;;;;;;;;;;10406171;28;20552;-89
2023/12/18 20:05:54;;;;;;;9.00;6.60;;;;;;;;;;10436861;28;20060;-88
